Time;durP1;ratioP1;P1;durP2;ratioP2;P2;SDS_P1;SDS_P2;PMS_P1;PMS_P2;Temp;Humidity;BMP_temperature;BMP_pressure;BME280_temperature;BME280_humidity;BME280_pressure;Samples;Min_cycle;Max_cycle;Signal;HPM_P1;HPM_P2
2021/12/01 00:00:51;;;;;;;2.10;2.00;;;;;;;;;;5012901;28;20456;-69
2021/12/01 00:03:17;;;;;;;2.20;2.07;;;;;;;;;;5013923;28;20478;-68
2021/12/01 00:05:43;;;;;;;1.87;1.77;;;;;;;;;;5013818;28;20467;-68
2021/12/01 00:08:09;;;;;;;1.87;1.87;;;;;;;;;;5013781;28;20421;-69
2021/12/01 00:10:36;;;;;;;1.90;1.80;;;;;;;;;;5012638;28;21027;-68
2021/12/01 00:13:02;;;;;;;1.93;1.70;;;;;;;;;;5013731;28;20965;-69
2021/12/01 00:15:28;;;;;;;1.70;1.70;;;;;;;;;;5013785;28;20420;-70
2021/12/01 00:17:55;;;;;;;1.50;1.50;;;;;;;;;;5013721;28;20405;-71
2021/12/01 00:20:21;;;;;;;2.27;1.90;;;;;;;;;;5013742;28;20450;-68
2021/12/01 00:22:47;;;;;;;2.07;1.87;;;;;;;;;;5012398;28;20825;-69
2021/12/01 00:25:14;;;;;;;1.70;1.70;;;;;;;;;;5013667;28;20428;-69
2021/12/01 00:27:42;;;;;;;2.17;1.73;;;;;;;;;;5013578;28;20452;-69
2021/12/01 00:30:09;;;;;;;2.00;1.87;;;;;;;;;;5013875;28;20737;-70
2021/12/01 00:32:35;;;;;;;3.93;3.63;;;;;;;;;;5015253;28;20467;-69
2021/12/01 00:35:01;;;;;;;1.97;1.87;;;;;;;;;;5017785;28;20803;-69
2021/12/01 00:37:28;;;;;;;2.53;2.33;;;;;;;;;;5017593;28;20519;-69
2021/12/01 00:39:54;;;;;;;2.47;2.37;;;;;;;;;;5017680;28;20436;-68
2021/12/01 00:42:20;;;;;;;1.70;1.60;;;;;;;;;;5017472;28;20780;-69
2021/12/01 00:44:49;;;;;;;2.57;1.80;;;;;;;;;;5017524;28;20406;-70
2021/12/01 00:47:15;;;;;;;2.00;1.80;;;;;;;;;;5016415;28;20800;-70
2021/12/01 00:49:42;;;;;;;1.57;1.50;;;;;;;;;;5015995;28;20794;-69
2021/12/01 00:52:08;;;;;;;1.90;1.90;;;;;;;;;;5017238;28;20451;-70
2021/12/01 00:54:34;;;;;;;2.07;2.07;;;;;;;;;;5015983;28;20436;-69
2021/12/01 00:57:00;;;;;;;1.47;1.37;;;;;;;;;;5017157;28;20507;-68
2021/12/01 00:59:27;;;;;;;1.27;1.27;;;;;;;;;;5017102;28;20877;-69
2021/12/01 01:01:53;;;;;;;1.80;1.70;;;;;;;;;;5017407;28;20462;-69
2021/12/01 01:04:19;;;;;;;1.77;1.77;;;;;;;;;;5016962;28;20409;-71
2021/12/01 01:06:45;;;;;;;2.10;2.00;;;;;;;;;;5016689;28;20447;-69
2021/12/01 01:09:11;;;;;;;1.50;1.50;;;;;;;;;;5015717;28;20796;-69
2021/12/01 01:17:08;;;;;;;1.43;1.43;;;;;;;;;;5016909;28;20404;-69
2021/12/01 01:19:35;;;;;;;1.30;1.30;;;;;;;;;;5015872;28;20769;-70
2021/12/01 01:22:01;;;;;;;3.50;1.90;;;;;;;;;;5016747;28;20497;-69
2021/12/01 01:24:28;;;;;;;2.20;1.63;;;;;;;;;;5016780;28;20383;-69
2021/12/01 01:26:56;;;;;;;1.70;1.57;;;;;;;;;;5016668;28;20451;-69
2021/12/01 01:29:22;;;;;;;1.53;1.43;;;;;;;;;;5016668;28;20379;-69
2021/12/01 01:31:52;;;;;;;1.93;1.70;;;;;;;;;;5016599;28;20416;-70
2021/12/01 01:34:19;;;;;;;6.53;1.17;;;;;;;;;;5016394;28;20443;-69
2021/12/01 01:36:44;;;;;;;1.20;1.20;;;;;;;;;;5016405;28;20409;-69
2021/12/01 01:39:10;;;;;;;1.10;1.10;;;;;;;;;;5015278;28;20858;-69
2021/12/01 01:41:36;;;;;;;1.30;1.30;;;;;;;;;;5016364;28;20380;-70
2021/12/01 01:44:03;;;;;;;1.30;1.30;;;;;;;;;;5016346;28;20379;-70
2021/12/01 01:46:33;;;;;;;2.13;1.30;;;;;;;;;;5016267;28;20409;-69
2021/12/01 01:49:06;;;;;;;2.43;1.40;;;;;;;;;;5016347;28;20409;-69
2021/12/01 01:51:32;;;;;;;1.07;1.07;;;;;;;;;;5016271;28;20417;-69
2021/12/01 01:53:59;;;;;;;2.07;1.10;;;;;;;;;;5016047;28;20503;-69
2021/12/01 01:56:25;;;;;;;1.00;1.00;;;;;;;;;;5016233;28;20413;-68
2021/12/01 01:58:52;;;;;;;1.33;1.13;;;;;;;;;;5014764;28;20439;-69
2021/12/01 02:04:03;;;;;;;1.30;1.30;;;;;;;;;;5015998;28;20419;-69
2021/12/01 02:06:31;;;;;;;1.17;1.17;;;;;;;;;;5015798;28;20468;-69
2021/12/01 02:08:58;;;;;;;1.00;1.00;;;;;;;;;;5015969;28;20416;-68
2021/12/01 02:11:24;;;;;;;1.50;1.30;;;;;;;;;;5014602;28;20443;-69
2021/12/01 02:13:51;;;;;;;1.00;1.00;;;;;;;;;;5015640;28;20472;-68
2021/12/01 02:16:17;;;;;;;1.63;1.00;;;;;;;;;;5015777;28;20404;-70
2021/12/01 02:18:44;;;;;;;1.20;1.10;;;;;;;;;;5015807;28;20416;-69
2021/12/01 02:21:11;;;;;;;1.10;1.10;;;;;;;;;;5015660;28;20464;-70
2021/12/01 02:23:38;;;;;;;1.07;0.90;;;;;;;;;;5015744;28;20435;-68
2021/12/01 02:26:05;;;;;;;1.17;1.00;;;;;;;;;;5015705;28;20413;-70
2021/12/01 02:28:31;;;;;;;0.80;0.80;;;;;;;;;;5015506;28;20875;-68
2021/12/01 02:30:57;;;;;;;1.10;1.10;;;;;;;;;;5015531;28;20587;-69
2021/12/01 02:33:23;;;;;;;1.00;1.00;;;;;;;;;;5015331;28;20468;-69
2021/12/01 02:35:49;;;;;;;0.90;0.90;;;;;;;;;;5014175;28;20903;-69
2021/12/01 02:38:17;;;;;;;1.47;0.90;;;;;;;;;;5015270;28;20420;-69
2021/12/01 02:40:43;;;;;;;0.93;0.93;;;;;;;;;;5015350;28;20895;-68
2021/12/01 02:43:09;;;;;;;5.70;1.30;;;;;;;;;;5015298;28;20397;-69
2021/12/01 02:45:35;;;;;;;0.80;0.80;;;;;;;;;;5015242;28;20408;-69
2021/12/01 02:48:02;;;;;;;0.80;0.80;;;;;;;;;;5015244;28;20400;-68
2021/12/01 02:50:28;;;;;;;0.70;0.70;;;;;;;;;;5015188;28;20783;-69
2021/12/01 02:52:54;;;;;;;2.00;1.10;;;;;;;;;;5015037;28;20468;-69
2021/12/01 02:55:21;;;;;;;1.40;1.00;;;;;;;;;;5014534;28;20439;-68
2021/12/01 02:57:49;;;;;;;0.97;0.97;;;;;;;;;;5014928;28;20463;-69
2021/12/01 03:00:17;;;;;;;0.80;0.80;;;;;;;;;;5015044;28;21015;-68
2021/12/01 03:02:44;;;;;;;0.80;0.80;;;;;;;;;;5015038;28;20953;-69
2021/12/01 03:05:10;;;;;;;1.10;1.10;;;;;;;;;;5014815;28;20879;-69
2021/12/01 03:07:37;;;;;;;4.43;0.80;;;;;;;;;;5014738;28;20467;-70
2021/12/01 03:10:04;;;;;;;2.93;0.90;;;;;;;;;;5014866;28;20438;-69
2021/12/01 03:12:31;;;;;;;1.60;1.03;;;;;;;;;;5014601;28;20459;-70
2021/12/01 03:14:57;;;;;;;0.80;0.80;;;;;;;;;;5013515;28;20436;-69
2021/12/01 03:17:27;;;;;;;0.90;0.80;;;;;;;;;;5014681;28;20411;-69
2021/12/01 03:19:53;;;;;;;0.90;0.90;;;;;;;;;;5014692;28;20624;-69
2021/12/01 03:22:19;;;;;;;1.37;0.60;;;;;;;;;;5014501;28;20413;-69
2021/12/01 03:24:45;;;;;;;1.17;0.80;;;;;;;;;;5014572;28;20420;-69
2021/12/01 03:27:11;;;;;;;0.70;0.70;;;;;;;;;;5014457;28;20790;-69
2021/12/01 03:29:37;;;;;;;1.53;1.20;;;;;;;;;;5014456;28;20417;-69
2021/12/01 03:32:03;;;;;;;1.03;1.00;;;;;;;;;;5014458;28;20409;-69
2021/12/01 03:34:30;;;;;;;1.23;0.93;;;;;;;;;;5014434;28;20417;-68
2021/12/01 03:36:57;;;;;;;0.90;0.90;;;;;;;;;;5014654;28;20467;-67
2021/12/01 03:39:24;;;;;;;1.80;1.10;;;;;;;;;;5013451;28;20440;-69
2021/12/01 03:41:50;;;;;;;0.63;0.63;;;;;;;;;;5014278;28;20409;-69
2021/12/01 03:44:16;;;;;;;0.67;0.67;;;;;;;;;;5014189;28;20458;-68
2021/12/01 03:46:42;;;;;;;0.87;0.87;;;;;;;;;;5014088;28;20554;-69
2021/12/01 03:49:08;;;;;;;0.90;0.90;;;;;;;;;;5014108;28;20419;-69
2021/12/01 03:51:34;;;;;;;0.70;0.70;;;;;;;;;;5014064;28;20417;-69
2021/12/01 03:54:00;;;;;;;0.90;0.90;;;;;;;;;;5012770;28;21005;-69
2021/12/01 03:56:26;;;;;;;0.70;0.70;;;;;;;;;;5014179;28;20836;-69
2021/12/01 03:58:53;;;;;;;0.67;0.67;;;;;;;;;;5014087;28;20440;-69
2021/12/01 04:01:19;;;;;;;0.77;0.77;;;;;;;;;;5014087;28;20460;-69
2021/12/01 04:03:46;;;;;;;0.70;0.70;;;;;;;;;;5013872;28;20408;-69
2021/12/01 04:06:11;;;;;;;1.47;0.80;;;;;;;;;;5013343;28;20475;-69
2021/12/01 04:08:38;;;;;;;1.30;0.80;;;;;;;;;;5013406;28;20425;-69
2021/12/01 04:11:04;;;;;;;0.87;0.70;;;;;;;;;;5013855;28;20394;-69
2021/12/01 04:13:30;;;;;;;0.70;0.70;;;;;;;;;;5012546;28;20480;-69
2021/12/01 04:15:56;;;;;;;1.10;1.10;;;;;;;;;;5012542;28;20478;-69
2021/12/01 04:18:22;;;;;;;0.77;0.77;;;;;;;;;;5013791;28;20413;-69
2021/12/01 04:20:48;;;;;;;2.07;0.80;;;;;;;;;;5013764;28;20781;-70
2021/12/01 04:23:14;;;;;;;0.87;0.60;;;;;;;;;;5013870;28;20415;-70
2021/12/01 04:25:40;;;;;;;1.03;0.90;;;;;;;;;;5013775;28;20907;-68
2021/12/01 04:28:06;;;;;;;0.90;0.90;;;;;;;;;;5012881;28;20508;-68
2021/12/01 04:30:32;;;;;;;0.57;0.53;;;;;;;;;;5013886;28;20801;-69
2021/12/01 04:32:58;;;;;;;2.43;0.83;;;;;;;;;;5014129;28;20504;-69
2021/12/01 04:35:26;;;;;;;0.70;0.70;;;;;;;;;;5013761;28;20476;-69
2021/12/01 04:37:52;;;;;;;0.50;0.50;;;;;;;;;;5013814;28;20459;-69
2021/12/01 04:40:19;;;;;;;0.67;0.53;;;;;;;;;;5013553;28;20406;-68
2021/12/01 04:42:45;;;;;;;0.50;0.50;;;;;;;;;;5013572;28;20420;-68
2021/12/01 04:45:15;;;;;;;0.40;0.40;;;;;;;;;;5013541;28;20416;-68
2021/12/01 04:47:43;;;;;;;0.40;0.40;;;;;;;;;;5012229;28;20412;-68
2021/12/01 04:50:09;;;;;;;0.83;0.53;;;;;;;;;;5013419;28;20416;-69
2021/12/01 04:52:35;;;;;;;0.50;0.50;;;;;;;;;;5013266;28;20460;-69
2021/12/01 04:55:01;;;;;;;0.60;0.60;;;;;;;;;;5013379;28;20775;-69
2021/12/01 04:57:27;;;;;;;0.40;0.40;;;;;;;;;;5013448;28;20400;-69
2021/12/01 04:59:53;;;;;;;0.40;0.40;;;;;;;;;;5013470;28;20416;-69
2021/12/01 05:02:19;;;;;;;0.40;0.40;;;;;;;;;;5012126;28;20413;-69
2021/12/01 05:04:45;;;;;;;2.90;0.40;;;;;;;;;;5013370;28;20468;-68
2021/12/01 05:07:13;;;;;;;0.40;0.40;;;;;;;;;;5013128;28;20460;-70
2021/12/01 05:09:39;;;;;;;1.73;0.40;;;;;;;;;;5013265;28;20883;-69
2021/12/01 05:12:07;;;;;;;0.40;0.40;;;;;;;;;;5013254;28;20404;-70
2021/12/01 05:14:34;;;;;;;0.40;0.40;;;;;;;;;;5013280;28;20416;-69
2021/12/01 05:17:00;;;;;;;0.40;0.40;;;;;;;;;;5011811;28;20495;-70
2021/12/01 05:19:26;;;;;;;0.40;0.40;;;;;;;;;;5016050;28;20412;-69
2021/12/01 05:21:52;;;;;;;0.40;0.40;;;;;;;;;;5016778;28;20777;-69
2021/12/01 05:24:18;;;;;;;0.67;0.67;;;;;;;;;;5016777;28;20413;-69
2021/12/01 05:26:44;;;;;;;0.73;0.73;;;;;;;;;;5016759;28;20444;-69
2021/12/01 05:29:11;;;;;;;0.40;0.40;;;;;;;;;;5015448;28;20424;-70
2021/12/01 05:31:36;;;;;;;0.80;0.80;;;;;;;;;;5016688;28;20454;-69
2021/12/01 05:34:03;;;;;;;0.40;0.40;;;;;;;;;;5016277;28;20467;-68
2021/12/01 05:36:29;;;;;;;1.00;0.83;;;;;;;;;;5016430;28;20887;-68
2021/12/01 05:38:55;;;;;;;0.40;0.40;;;;;;;;;;5016481;28;20409;-70
2021/12/01 05:41:21;;;;;;;1.87;1.87;;;;;;;;;;5016742;28;20793;-70
2021/12/01 05:43:47;;;;;;;1.20;1.20;;;;;;;;;;5016435;28;20420;-71
2021/12/01 05:46:14;;;;;;;0.33;0.33;;;;;;;;;;5016373;28;20409;-70
2021/12/01 05:48:40;;;;;;;0.40;0.40;;;;;;;;;;5016247;28;20413;-70
2021/12/01 05:51:06;;;;;;;0.40;0.40;;;;;;;;;;5016239;28;20790;-70
2021/12/01 05:53:32;;;;;;;0.50;0.50;;;;;;;;;;5016064;28;20468;-69
2021/12/01 05:55:58;;;;;;;0.30;0.30;;;;;;;;;;5016204;28;20459;-70
2021/12/01 05:58:24;;;;;;;0.40;0.40;;;;;;;;;;5016156;28;20486;-73
2021/12/01 06:00:50;;;;;;;2.87;0.50;;;;;;;;;;5016055;28;20892;-72
2021/12/01 06:03:16;;;;;;;0.40;0.40;;;;;;;;;;5016129;28;20455;-72
2021/12/01 06:05:44;;;;;;;0.50;0.40;;;;;;;;;;5015657;28;20428;-72
2021/12/01 06:08:10;;;;;;;0.30;0.30;;;;;;;;;;5016141;28;20413;-71
2021/12/01 06:10:36;;;;;;;1.00;0.30;;;;;;;;;;5015956;28;20895;-73
2021/12/01 06:13:02;;;;;;;0.40;0.40;;;;;;;;;;5015784;28;20456;-68
2021/12/01 06:15:31;;;;;;;2.53;0.40;;;;;;;;;;5015831;28;20405;-69
2021/12/01 06:17:58;;;;;;;0.40;0.40;;;;;;;;;;5014498;28;20982;-71
2021/12/01 06:20:24;;;;;;;1.13;1.13;;;;;;;;;;5015955;28;20436;-70
2021/12/01 06:22:52;;;;;;;1.60;0.40;;;;;;;;;;5015605;28;20902;-69
2021/12/01 06:25:18;;;;;;;0.40;0.40;;;;;;;;;;5015820;28;20504;-69
2021/12/01 06:27:44;;;;;;;0.53;0.53;;;;;;;;;;5015715;28;20444;-69
2021/12/01 06:30:11;;;;;;;0.60;0.60;;;;;;;;;;5014722;28;20818;-70
2021/12/01 06:32:37;;;;;;;2.50;0.93;;;;;;;;;;5015187;28;20522;-69
2021/12/01 06:35:03;;;;;;;0.63;0.63;;;;;;;;;;5015366;28;20256;-69
2021/12/01 06:37:29;;;;;;;0.63;0.63;;;;;;;;;;5015552;28;20479;-69
2021/12/01 06:39:55;;;;;;;0.80;0.80;;;;;;;;;;5015302;28;20503;-69
2021/12/01 06:42:22;;;;;;;0.50;0.50;;;;;;;;;;5015203;28;20436;-69
2021/12/01 06:44:48;;;;;;;0.40;0.40;;;;;;;;;;5015251;28;20412;-69
2021/12/01 06:47:15;;;;;;;0.30;0.30;;;;;;;;;;5015225;28;20407;-69
2021/12/01 06:49:45;;;;;;;0.40;0.40;;;;;;;;;;5013911;28;20440;-69
2021/12/01 06:52:11;;;;;;;0.60;0.60;;;;;;;;;;5015240;28;20466;-69
2021/12/01 06:54:37;;;;;;;1.00;0.43;;;;;;;;;;5015118;28;20471;-70
2021/12/01 06:57:03;;;;;;;0.40;0.40;;;;;;;;;;5015117;28;20508;-69
2021/12/01 06:59:29;;;;;;;1.27;0.50;;;;;;;;;;5015140;28;20413;-70
2021/12/01 07:01:55;;;;;;;0.50;0.50;;;;;;;;;;5014915;28;20400;-71
2021/12/01 07:04:21;;;;;;;0.40;0.40;;;;;;;;;;5014882;28;20455;-70
2021/12/01 07:06:47;;;;;;;0.53;0.53;;;;;;;;;;5014763;28;20460;-68
2021/12/01 07:09:18;;;;;;;0.67;0.67;;;;;;;;;;5015145;28;20527;-69
2021/12/01 07:11:45;;;;;;;0.40;0.40;;;;;;;;;;5015094;28;20492;-69
2021/12/01 07:14:11;;;;;;;0.93;0.47;;;;;;;;;;5014695;28;20835;-68
2021/12/01 07:16:37;;;;;;;3.80;0.40;;;;;;;;;;5014664;28;20425;-70
2021/12/01 07:19:03;;;;;;;0.43;0.43;;;;;;;;;;5014532;28;20409;-69
2021/12/01 07:21:29;;;;;;;0.40;0.40;;;;;;;;;;5014615;28;20742;-69
2021/12/01 07:23:55;;;;;;;0.30;0.30;;;;;;;;;;5014601;28;20411;-69
2021/12/01 07:26:21;;;;;;;0.40;0.40;;;;;;;;;;5014575;28;20429;-69
2021/12/01 07:28:47;;;;;;;2.30;0.40;;;;;;;;;;5014600;28;20922;-69
2021/12/01 07:31:13;;;;;;;0.30;0.30;;;;;;;;;;5014474;28;20396;-68
2021/12/01 07:33:39;;;;;;;0.30;0.30;;;;;;;;;;5014645;28;20464;-69
2021/12/01 07:36:05;;;;;;;0.40;0.40;;;;;;;;;;5014427;28;20420;-69
2021/12/01 07:38:32;;;;;;;0.43;0.43;;;;;;;;;;5014331;28;20411;-69
2021/12/01 07:40:58;;;;;;;0.30;0.30;;;;;;;;;;5014259;28;20417;-69
2021/12/01 07:43:24;;;;;;;0.40;0.40;;;;;;;;;;5014031;28;20413;-69
2021/12/01 07:45:50;;;;;;;0.50;0.50;;;;;;;;;;5014175;28;20416;-69
2021/12/01 07:48:16;;;;;;;0.30;0.30;;;;;;;;;;5014221;28;20441;-69
2021/12/01 07:50:43;;;;;;;0.40;0.40;;;;;;;;;;5014087;28;20439;-69
2021/12/01 07:53:09;;;;;;;0.40;0.40;;;;;;;;;;5013924;28;20475;-69
2021/12/01 07:55:35;;;;;;;0.40;0.40;;;;;;;;;;5014076;28;20404;-69
2021/12/01 07:58:01;;;;;;;0.40;0.40;;;;;;;;;;5013992;28;20975;-68
2021/12/01 08:00:27;;;;;;;0.40;0.40;;;;;;;;;;5013988;28;20402;-69
2021/12/01 08:02:53;;;;;;;0.43;0.43;;;;;;;;;;5013914;28;20512;-70
2021/12/01 08:05:19;;;;;;;0.30;0.30;;;;;;;;;;5013942;28;20438;-69
2021/12/01 08:07:45;;;;;;;0.50;0.50;;;;;;;;;;5013680;28;20518;-68
2021/12/01 08:10:11;;;;;;;0.70;0.70;;;;;;;;;;5014083;28;20413;-69
2021/12/01 08:12:38;;;;;;;0.40;0.40;;;;;;;;;;5013797;28;20460;-69
2021/12/01 08:15:05;;;;;;;2.13;2.03;;;;;;;;;;5013827;28;20409;-69
2021/12/01 08:17:31;;;;;;;0.40;0.40;;;;;;;;;;5013680;28;20764;-69
2021/12/01 08:19:58;;;;;;;0.40;0.40;;;;;;;;;;5013772;28;20410;-69
2021/12/01 08:22:27;;;;;;;0.50;0.50;;;;;;;;;;5013619;28;20409;-69
2021/12/01 08:24:54;;;;;;;1.30;0.40;;;;;;;;;;5013707;28;20434;-70
2021/12/01 08:27:21;;;;;;;1.60;0.40;;;;;;;;;;5013683;28;20393;-71
2021/12/01 08:29:47;;;;;;;0.40;0.40;;;;;;;;;;5013624;28;20444;-70
2021/12/01 08:32:13;;;;;;;0.30;0.30;;;;;;;;;;5013581;28;20412;-69
2021/12/01 08:34:39;;;;;;;0.50;0.50;;;;;;;;;;5013490;28;20468;-69
2021/12/01 08:37:08;;;;;;;0.40;0.40;;;;;;;;;;5013592;28;20756;-70
2021/12/01 08:39:34;;;;;;;0.53;0.50;;;;;;;;;;5013768;28;20432;-70
2021/12/01 08:42:00;;;;;;;0.87;0.40;;;;;;;;;;5013510;28;20496;-68
2021/12/01 08:44:26;;;;;;;0.40;0.40;;;;;;;;;;5013569;28;20405;-68
2021/12/01 08:46:52;;;;;;;1.90;0.50;;;;;;;;;;5013491;28;20488;-67
2021/12/01 08:49:18;;;;;;;0.40;0.40;;;;;;;;;;5013397;28;20785;-67
2021/12/01 08:51:44;;;;;;;0.40;0.40;;;;;;;;;;5013321;28;20419;-67
2021/12/01 08:54:13;;;;;;;2.83;0.53;;;;;;;;;;5015853;28;21038;-68
2021/12/01 08:56:40;;;;;;;0.40;0.40;;;;;;;;;;5017347;28;20896;-67
2021/12/01 08:59:06;;;;;;;2.43;0.53;;;;;;;;;;5017204;28;20413;-67
2021/12/01 09:01:32;;;;;;;1.33;0.50;;;;;;;;;;5017376;28;20405;-68
2021/12/01 09:03:58;;;;;;;0.40;0.40;;;;;;;;;;5017348;28;20834;-68
2021/12/01 09:06:24;;;;;;;0.40;0.40;;;;;;;;;;5017080;28;20464;-66
2021/12/01 09:08:50;;;;;;;0.70;0.70;;;;;;;;;;5016894;28;20765;-68
2021/12/01 09:11:16;;;;;;;0.70;0.70;;;;;;;;;;5017139;28;20408;-67
2021/12/01 09:13:42;;;;;;;0.60;0.60;;;;;;;;;;5016806;28;20519;-72
2021/12/01 09:16:08;;;;;;;0.60;0.60;;;;;;;;;;5016825;28;20433;-68
2021/12/01 09:18:34;;;;;;;0.50;0.50;;;;;;;;;;5016833;28;20413;-69
2021/12/01 09:21:01;;;;;;;0.83;0.83;;;;;;;;;;5016763;28;20915;-68
2021/12/01 09:23:27;;;;;;;0.60;0.60;;;;;;;;;;5016653;28;20499;-68
2021/12/01 09:25:53;;;;;;;0.73;0.73;;;;;;;;;;5015517;28;20424;-67
2021/12/01 09:28:22;;;;;;;0.90;0.70;;;;;;;;;;5016616;28;20417;-68
2021/12/01 09:30:48;;;;;;;0.90;0.90;;;;;;;;;;5016752;28;20404;-68
2021/12/01 09:33:15;;;;;;;1.13;1.13;;;;;;;;;;5016595;28;20466;-68
2021/12/01 09:35:41;;;;;;;0.87;0.87;;;;;;;;;;5016470;28;20789;-67
2021/12/01 09:38:07;;;;;;;1.00;1.00;;;;;;;;;;5016377;28;20397;-68
2021/12/01 09:40:33;;;;;;;0.90;0.90;;;;;;;;;;5016443;28;20543;-66
2021/12/01 09:42:59;;;;;;;0.93;0.93;;;;;;;;;;5016375;28;20432;-66
2021/12/01 09:45:26;;;;;;;0.60;0.60;;;;;;;;;;5016429;28;20410;-67
2021/12/01 09:47:52;;;;;;;1.67;0.90;;;;;;;;;;5016302;28;20460;-68
2021/12/01 09:50:19;;;;;;;0.50;0.50;;;;;;;;;;5016298;28;20440;-68
2021/12/01 09:52:45;;;;;;;2.30;0.50;;;;;;;;;;5016095;28;20473;-67
2021/12/01 09:55:12;;;;;;;0.50;0.50;;;;;;;;;;5016203;28;20405;-68
2021/12/01 09:57:39;;;;;;;2.97;0.60;;;;;;;;;;5016327;28;20902;-69
2021/12/01 10:00:06;;;;;;;0.40;0.40;;;;;;;;;;5016097;28;20452;-68
2021/12/01 10:02:32;;;;;;;0.57;0.57;;;;;;;;;;5014855;28;20425;-69
2021/12/01 10:04:58;;;;;;;1.43;0.47;;;;;;;;;;5014702;28;20928;-70
2021/12/01 10:07:33;;;;;;;1.03;0.70;;;;;;;;;;5015852;28;20487;-69
2021/12/01 10:10:04;;;;;;;0.60;0.60;;;;;;;;;;5015767;28;20392;-68
2021/12/01 10:12:51;;;;;;;0.40;0.40;;;;;;;;;;5015728;28;20451;-69
2021/12/01 10:15:30;;;;;;;1.50;0.90;;;;;;;;;;5015749;28;20405;-69
2021/12/01 10:18:12;;;;;;;0.50;0.50;;;;;;;;;;5015748;28;20409;-68
2021/12/01 10:20:38;;;;;;;0.77;0.77;;;;;;;;;;5015675;28;20452;-69
2021/12/01 10:23:08;;;;;;;0.97;0.97;;;;;;;;;;5015644;28;20422;-70
2021/12/01 10:25:34;;;;;;;1.47;0.60;;;;;;;;;;5015582;28;20908;-70
2021/12/01 10:28:00;;;;;;;3.90;0.60;;;;;;;;;;5015769;28;20413;-67
2021/12/01 10:30:40;;;;;;;0.50;0.50;;;;;;;;;;5015537;28;20811;-69
2021/12/01 10:33:07;;;;;;;0.60;0.60;;;;;;;;;;5015678;28;20459;-68
2021/12/01 10:35:37;;;;;;;0.77;0.77;;;;;;;;;;5015413;28;20409;-68
2021/12/01 10:38:04;;;;;;;0.47;0.47;;;;;;;;;;5015693;28;20484;-67
2021/12/01 10:40:30;;;;;;;0.50;0.50;;;;;;;;;;5015506;28;20401;-67
2021/12/01 10:43:07;;;;;;;2.93;0.50;;;;;;;;;;5015422;28;20405;-65
2021/12/01 10:45:33;;;;;;;0.53;0.53;;;;;;;;;;5015082;28;20498;-65
2021/12/01 10:48:00;;;;;;;0.60;0.60;;;;;;;;;;5015221;28;20405;-65
2021/12/01 10:50:27;;;;;;;0.80;0.80;;;;;;;;;;5015065;28;20405;-65
2021/12/01 10:53:01;;;;;;;0.87;0.87;;;;;;;;;;5014968;28;20469;-68
2021/12/01 10:55:27;;;;;;;0.70;0.70;;;;;;;;;;5014965;28;20887;-66
2021/12/01 10:57:58;;;;;;;0.70;0.70;;;;;;;;;;5015040;28;20405;-66
2021/12/01 11:00:26;;;;;;;0.50;0.50;;;;;;;;;;5015193;28;20415;-66
2021/12/01 11:02:53;;;;;;;0.80;0.80;;;;;;;;;;5015159;28;20409;-68
2021/12/01 11:05:29;;;;;;;0.70;0.70;;;;;;;;;;5014868;28;20405;-68
2021/12/01 11:07:55;;;;;;;0.63;0.63;;;;;;;;;;5014551;28;20467;-67
2021/12/01 11:10:24;;;;;;;0.80;0.80;;;;;;;;;;5013619;28;20424;-67
2021/12/01 11:12:57;;;;;;;0.60;0.60;;;;;;;;;;5014711;28;20547;-68
2021/12/01 11:15:30;;;;;;;1.23;0.70;;;;;;;;;;5014620;28;20508;-72
2021/12/01 11:17:58;;;;;;;0.70;0.70;;;;;;;;;;5014642;28;20476;-72
2021/12/01 11:20:33;;;;;;;0.50;0.50;;;;;;;;;;5014701;28;20762;-67
2021/12/01 11:23:07;;;;;;;0.77;0.73;;;;;;;;;;5014805;28;20467;-74
2021/12/01 11:25:35;;;;;;;0.87;0.87;;;;;;;;;;5014590;28;20402;-71
2021/12/01 11:28:02;;;;;;;0.70;0.70;;;;;;;;;;5014618;28;20393;-71
2021/12/01 11:30:28;;;;;;;1.90;0.60;;;;;;;;;;5014602;28;20456;-70
2021/12/01 11:32:54;;;;;;;7.20;0.70;;;;;;;;;;5014676;28;20799;-69
2021/12/01 11:35:20;;;;;;;5.83;0.57;;;;;;;;;;5014544;28;20511;-66
2021/12/01 11:37:48;;;;;;;0.60;0.60;;;;;;;;;;5014367;28;20440;-67
2021/12/01 11:40:14;;;;;;;0.50;0.50;;;;;;;;;;5014360;28;20844;-69
2021/12/01 11:42:40;;;;;;;1.10;1.00;;;;;;;;;;5014300;28;20393;-69
2021/12/01 11:45:06;;;;;;;0.90;0.90;;;;;;;;;;5014268;28;20970;-69
2021/12/01 11:47:32;;;;;;;0.83;0.60;;;;;;;;;;5014146;28;20429;-68
2021/12/01 11:50:01;;;;;;;1.00;0.90;;;;;;;;;;5014250;28;20459;-70
2021/12/01 11:52:34;;;;;;;0.90;0.90;;;;;;;;;;5013980;28;20440;-70
2021/12/01 11:55:00;;;;;;;0.63;0.63;;;;;;;;;;5014116;28;20467;-67
2021/12/01 11:57:37;;;;;;;2.50;1.17;;;;;;;;;;5014278;28;20481;-68
2021/12/01 12:00:04;;;;;;;0.70;0.70;;;;;;;;;;5014059;28;20492;-68
2021/12/01 12:02:29;;;;;;;1.17;1.07;;;;;;;;;;5013892;28;20419;-69
2021/12/01 12:04:57;;;;;;;3.07;0.80;;;;;;;;;;5013843;28;20405;-68
2021/12/01 12:07:26;;;;;;;3.03;0.80;;;;;;;;;;5013683;28;20472;-69
2021/12/01 12:10:11;;;;;;;3.80;0.93;;;;;;;;;;5013891;28;20401;-68
2021/12/01 12:12:44;;;;;;;0.67;0.67;;;;;;;;;;5013783;28;20428;-68
2021/12/01 12:15:10;;;;;;;1.07;0.80;;;;;;;;;;5013791;28;20500;-67
2021/12/01 12:17:36;;;;;;;0.93;0.93;;;;;;;;;;5013730;28;20752;-68
2021/12/01 12:20:29;;;;;;;1.30;1.20;;;;;;;;;;5012438;28;20952;-68
2021/12/01 12:22:59;;;;;;;0.80;0.80;;;;;;;;;;5013767;28;20891;-67
2021/12/01 12:25:47;;;;;;;3.33;1.00;;;;;;;;;;5013808;28;20405;-67
2021/12/01 12:28:31;;;;;;;0.90;0.90;;;;;;;;;;5012899;28;20489;-66
2021/12/01 12:30:59;;;;;;;0.77;0.70;;;;;;;;;;5013718;28;20408;-67
2021/12/01 12:33:38;;;;;;;0.80;0.80;;;;;;;;;;5013553;28;20472;-67
2021/12/01 12:36:13;;;;;;;1.43;1.43;;;;;;;;;;5013750;28;20772;-67
2021/12/01 12:38:39;;;;;;;0.60;0.60;;;;;;;;;;5013708;28;20801;-68
2021/12/01 12:41:13;;;;;;;5.03;1.57;;;;;;;;;;5013719;28;20416;-66
2021/12/01 12:43:43;;;;;;;2.70;2.67;;;;;;;;;;5013692;28;20839;-69
2021/12/01 12:46:15;;;;;;;0.60;0.60;;;;;;;;;;5013556;28;20409;-67
2021/12/01 12:48:43;;;;;;;0.80;0.80;;;;;;;;;;5013522;28;20935;-67
2021/12/01 12:51:18;;;;;;;0.97;0.97;;;;;;;;;;5013486;28;20511;-68
2021/12/01 12:54:04;;;;;;;0.53;0.50;;;;;;;;;;5013322;28;20487;-67
2021/12/01 12:56:34;;;;;;;0.50;0.50;;;;;;;;;;5012151;28;20906;-66
2021/12/01 12:59:18;;;;;;;1.60;1.50;;;;;;;;;;5013678;28;20420;-66
2021/12/01 13:01:44;;;;;;;1.57;1.43;;;;;;;;;;5012028;28;20484;-67
2021/12/01 13:04:30;;;;;;;0.70;0.70;;;;;;;;;;5013281;28;20421;-67
2021/12/01 13:06:56;;;;;;;1.13;0.80;;;;;;;;;;5013018;28;20468;-67
2021/12/01 13:09:22;;;;;;;0.60;0.60;;;;;;;;;;5013306;28;20407;-66
2021/12/01 13:11:56;;;;;;;0.60;0.60;;;;;;;;;;5013280;28;20524;-67
2021/12/01 13:14:23;;;;;;;0.73;0.73;;;;;;;;;;5013176;28;20504;-71
2021/12/01 13:16:49;;;;;;;1.03;0.80;;;;;;;;;;5013158;28;20409;-71
2021/12/01 13:19:15;;;;;;;0.80;0.80;;;;;;;;;;5013243;28;20413;-70
2021/12/01 13:21:41;;;;;;;0.70;0.70;;;;;;;;;;5013110;28;20444;-71
2021/12/01 13:24:07;;;;;;;0.60;0.60;;;;;;;;;;5013195;28;20420;-71
2021/12/01 13:26:34;;;;;;;0.83;0.80;;;;;;;;;;5013137;28;20415;-70
2021/12/01 13:29:03;;;;;;;0.70;0.70;;;;;;;;;;5011907;28;20425;-70
2021/12/01 13:31:55;;;;;;;0.60;0.60;;;;;;;;;;5013090;28;20791;-70
2021/12/01 13:34:24;;;;;;;0.40;0.40;;;;;;;;;;5010133;28;21049;-71
2021/12/01 13:36:57;;;;;;;3.33;0.70;;;;;;;;;;5013064;28;20437;-71
2021/12/01 13:39:27;;;;;;;2.93;0.70;;;;;;;;;;5014118;28;20395;-72
2021/12/01 13:41:55;;;;;;;0.50;0.50;;;;;;;;;;5016491;28;20750;-71
2021/12/01 13:44:40;;;;;;;0.43;0.43;;;;;;;;;;5016404;28;20396;-71
2021/12/01 13:47:23;;;;;;;0.67;0.67;;;;;;;;;;5015203;28;20482;-73
2021/12/01 13:49:56;;;;;;;2.10;0.70;;;;;;;;;;5016603;28;20480;-71
2021/12/01 13:52:33;;;;;;;2.20;0.73;;;;;;;;;;5016266;28;20413;-69
2021/12/01 13:55:19;;;;;;;0.60;0.60;;;;;;;;;;5016343;28;20412;-69
2021/12/01 13:57:47;;;;;;;0.60;0.60;;;;;;;;;;5016508;28;20475;-70
2021/12/01 14:00:13;;;;;;;0.70;0.70;;;;;;;;;;5016259;28;20889;-71
2021/12/01 14:02:41;;;;;;;0.70;0.70;;;;;;;;;;5016109;28;20445;-70
2021/12/01 14:05:08;;;;;;;0.50;0.50;;;;;;;;;;5016159;28;20401;-68
2021/12/01 14:07:46;;;;;;;0.60;0.50;;;;;;;;;;5015840;28;20570;-66
2021/12/01 14:10:15;;;;;;;0.50;0.50;;;;;;;;;;5016098;28;20891;-67
2021/12/01 14:12:41;;;;;;;4.33;0.60;;;;;;;;;;5015812;28;20405;-67
2021/12/01 14:15:07;;;;;;;2.00;0.70;;;;;;;;;;5014705;28;20424;-66
2021/12/01 14:17:34;;;;;;;0.70;0.70;;;;;;;;;;5015901;28;20919;-67
2021/12/01 14:20:00;;;;;;;2.93;0.70;;;;;;;;;;5015863;28;20785;-66
2021/12/01 14:22:26;;;;;;;0.70;0.60;;;;;;;;;;5014556;28;20859;-66
2021/12/01 14:24:56;;;;;;;0.60;0.60;;;;;;;;;;5015738;28;20747;-67
2021/12/01 14:27:26;;;;;;;0.63;0.63;;;;;;;;;;5015727;28;20500;-68
2021/12/01 14:29:55;;;;;;;1.30;1.30;;;;;;;;;;5015621;28;20772;-67
2021/12/01 14:32:24;;;;;;;0.50;0.50;;;;;;;;;;5015617;28;20413;-68
2021/12/01 14:34:50;;;;;;;1.10;0.73;;;;;;;;;;5015484;28;20475;-67
2021/12/01 14:37:16;;;;;;;0.50;0.50;;;;;;;;;;5015536;28;20424;-67
2021/12/01 14:39:43;;;;;;;0.67;0.60;;;;;;;;;;5015435;28;20471;-67
2021/12/01 14:42:09;;;;;;;0.63;0.63;;;;;;;;;;5015432;28;20404;-68
2021/12/01 14:44:40;;;;;;;0.40;0.40;;;;;;;;;;5015407;28;20439;-68
2021/12/01 14:47:08;;;;;;;0.50;0.50;;;;;;;;;;5015394;28;20408;-68
2021/12/01 14:49:43;;;;;;;0.50;0.50;;;;;;;;;;5015254;28;20412;-66
2021/12/01 14:52:10;;;;;;;0.50;0.50;;;;;;;;;;5014520;28;20794;-67
2021/12/01 14:54:38;;;;;;;2.07;0.97;;;;;;;;;;5015149;28;20468;-66